createdAt,value
2019-01-31T00:02:42.697Z,0.30
2019-01-31T00:05:30.074Z,0.20
2019-01-31T00:08:46.087Z,0.10
2019-01-31T00:11:38.415Z,0.20
2019-01-31T00:14:37.151Z,0.20
2019-01-31T00:17:28.741Z,0.20
2019-01-31T00:21:14.017Z,0.20
2019-01-31T00:24:11.551Z,0.20
2019-01-31T00:27:24.072Z,0.10
2019-01-31T00:30:47.911Z,0.10
2019-01-31T00:33:35.787Z,0.10
2019-01-31T00:36:56.607Z,0.10
2019-01-31T00:40:00.766Z,0.10
2019-01-31T00:43:14.415Z,0.10
2019-01-31T00:46:31.036Z,0.10
2019-01-31T00:49:46.431Z,0.00
2019-01-31T00:52:56.680Z,0.10
2019-01-31T00:55:49.171Z,0.00
2019-01-31T00:58:33.136Z,0.00
2019-01-31T01:01:35.627Z,0.00
2019-01-31T01:04:37.878Z,0.10
2019-01-31T01:07:58.762Z,0.00
2019-01-31T01:11:04.294Z,0.00
2019-01-31T01:14:08.167Z,0.00
2019-01-31T01:17:10.082Z,0.00
2019-01-31T01:20:33.364Z,-0.10
2019-01-31T01:23:43.998Z,-0.10
2019-01-31T01:26:28.782Z,-0.10
2019-01-31T01:29:35.670Z,-0.20
2019-01-31T01:32:36.367Z,-0.20
2019-01-31T01:35:55.548Z,-0.30
2019-01-31T01:39:19.267Z,-0.40
2019-01-31T01:42:27.454Z,-0.40
2019-01-31T01:45:16.954Z,-0.50
2019-01-31T01:48:20.983Z,-0.60
2019-01-31T01:51:12.256Z,-0.60
2019-01-31T01:54:23.618Z,-0.60
2019-01-31T01:57:18.519Z,-0.60
2019-01-31T02:00:20.908Z,-0.70
2019-01-31T02:03:33.008Z,-0.80
2019-01-31T02:06:54.286Z,-0.80
2019-01-31T02:09:44.745Z,-0.80
2019-01-31T02:13:23.703Z,-0.80
2019-01-31T02:16:35.243Z,-0.80
2019-01-31T02:19:50.006Z,-0.90
2019-01-31T02:22:43.808Z,-0.90
2019-01-31T02:26:09.504Z,-0.90
2019-01-31T02:29:21.246Z,-0.90
2019-01-31T02:32:37.346Z,-1.00
2019-01-31T02:35:29.377Z,-1.00
2019-01-31T02:38:32.170Z,-1.00
2019-01-31T02:41:23.850Z,-1.10
2019-01-31T02:44:20.412Z,-1.10
2019-01-31T02:47:14.643Z,-1.10
2019-01-31T02:49:58.788Z,-1.20
2019-01-31T02:53:10.169Z,-1.20
2019-01-31T02:56:26.154Z,-1.20
2019-01-31T02:59:27.068Z,-1.20
2019-01-31T03:02:18.460Z,-1.20
2019-01-31T03:05:21.029Z,-1.20
2019-01-31T03:08:33.602Z,-1.30
2019-01-31T03:11:32.692Z,-1.30
2019-01-31T03:14:15.325Z,-1.30
2019-01-31T03:17:36.247Z,-1.30
2019-01-31T03:20:46.850Z,-1.40
2019-01-31T03:23:59.630Z,-1.40
2019-01-31T03:27:09.012Z,-1.40
2019-01-31T03:30:18.678Z,-1.40
2019-01-31T03:33:26.919Z,-1.50
2019-01-31T03:36:51.142Z,-1.60
2019-01-31T03:39:38.480Z,-1.60
2019-01-31T03:42:31.414Z,-1.60
2019-01-31T03:45:18.131Z,-1.60
2019-01-31T03:48:31.572Z,-1.70
2019-01-31T03:51:38.131Z,-1.60
2019-01-31T03:54:39.162Z,-1.60
2019-01-31T03:57:33.567Z,-1.60
2019-01-31T04:00:53.122Z,-1.60
2019-01-31T04:04:03.385Z,-1.50
2019-01-31T04:06:37.090Z,-1.50
2019-01-31T04:09:10.845Z,-1.50
2019-01-31T04:11:43.723Z,-1.40
2019-01-31T04:14:16.557Z,-1.40
2019-01-31T04:16:49.529Z,-1.40
2019-01-31T04:19:22.459Z,-1.40
2019-01-31T04:21:55.215Z,-1.30
2019-01-31T04:24:28.125Z,-1.30
2019-01-31T04:27:00.918Z,-1.30
2019-01-31T04:29:33.984Z,-1.30
2019-01-31T04:32:06.747Z,-1.30
2019-01-31T04:34:39.630Z,-1.30
2019-01-31T04:37:12.751Z,-1.30
2019-01-31T04:39:45.739Z,-1.30
2019-01-31T04:42:18.620Z,-1.30
2019-01-31T04:44:51.608Z,-1.30
2019-01-31T04:47:24.511Z,-1.30
2019-01-31T04:49:57.309Z,-1.30
2019-01-31T04:52:30.128Z,-1.30
2019-01-31T04:55:03.229Z,-1.30
2019-01-31T04:57:36.030Z,-1.30
2019-01-31T05:00:12.000Z,-1.20
2019-01-31T05:02:44.911Z,-1.20
2019-01-31T05:05:17.666Z,-1.20
2019-01-31T05:07:50.441Z,-1.20
2019-01-31T05:10:23.200Z,-1.10
2019-01-31T05:12:56.089Z,-1.10
2019-01-31T05:15:28.835Z,-1.00
2019-01-31T05:18:01.955Z,-1.00
2019-01-31T05:20:34.986Z,-1.00
2019-01-31T05:23:07.863Z,-1.00
2019-01-31T05:25:40.762Z,-1.00
2019-01-31T05:28:13.822Z,-1.00
2019-01-31T05:30:46.735Z,-1.00
2019-01-31T05:33:19.662Z,-1.00
2019-01-31T05:35:52.564Z,-0.90
2019-01-31T05:38:25.421Z,-0.90
2019-01-31T05:40:58.261Z,-0.90
2019-01-31T05:43:31.280Z,-0.90
2019-01-31T05:46:05.142Z,-0.80
2019-01-31T05:48:38.083Z,-0.80
2019-01-31T05:51:10.967Z,-0.70
2019-01-31T05:53:43.814Z,-0.70
2019-01-31T05:56:16.966Z,-0.60
2019-01-31T05:58:49.820Z,-0.70
2019-01-31T06:01:22.896Z,-0.70
2019-01-31T06:03:55.885Z,-0.70
2019-01-31T06:06:28.616Z,-0.80
2019-01-31T06:09:01.706Z,-0.70
2019-01-31T06:11:36.630Z,-0.80
2019-01-31T06:14:09.860Z,-0.80
2019-01-31T06:16:42.702Z,-0.80
2019-01-31T06:19:15.799Z,-0.80
2019-01-31T06:21:48.735Z,-0.80
2019-01-31T06:24:21.475Z,-0.80
2019-01-31T06:26:54.457Z,-0.80
2019-01-31T06:29:27.223Z,-0.80
2019-01-31T06:32:00.102Z,-0.80
2019-01-31T06:34:32.965Z,-0.80
2019-01-31T06:37:05.840Z,-0.80
2019-01-31T06:39:38.832Z,-0.80
2019-01-31T06:42:11.815Z,-0.80
2019-01-31T06:44:44.802Z,-0.80
2019-01-31T06:47:17.752Z,-0.80
2019-01-31T06:49:50.578Z,-0.70
2019-01-31T06:52:23.535Z,-0.70
2019-01-31T06:54:56.692Z,-0.70
2019-01-31T06:57:29.685Z,-0.70
2019-01-31T07:00:02.804Z,-0.70
2019-01-31T07:02:35.918Z,-0.60
2019-01-31T07:05:08.928Z,-0.60
2019-01-31T07:07:41.965Z,-0.60
2019-01-31T07:10:20.315Z,-0.60
2019-01-31T07:12:53.318Z,-0.70
2019-01-31T07:15:26.112Z,-0.60
2019-01-31T07:17:58.987Z,-0.60
2019-01-31T07:20:32.150Z,-0.60
2019-01-31T07:23:05.101Z,-0.60
2019-01-31T07:25:37.896Z,-0.60
2019-01-31T07:28:19.766Z,-0.60
2019-01-31T07:30:53.597Z,-0.60
2019-01-31T07:33:26.523Z,-0.60
2019-01-31T07:35:59.237Z,-0.60
2019-01-31T07:38:32.246Z,-0.60
2019-01-31T07:41:05.106Z,-0.60
2019-01-31T07:43:38.256Z,-0.50
2019-01-31T07:46:11.131Z,-0.60
2019-01-31T07:48:44.047Z,-0.60
2019-01-31T07:51:16.886Z,-0.50
2019-01-31T07:53:49.634Z,-0.50
2019-01-31T07:56:22.527Z,-0.50
2019-01-31T07:58:55.378Z,-0.50
2019-01-31T08:01:28.337Z,-0.40
2019-01-31T08:04:02.760Z,-0.40
2019-01-31T08:06:35.969Z,-0.40
2019-01-31T08:09:09.140Z,-0.40
2019-01-31T08:11:52.135Z,-0.40
2019-01-31T08:14:16.922Z,-0.30
2019-01-31T08:16:50.151Z,-0.20
2019-01-31T08:19:23.275Z,-0.20
2019-01-31T08:21:56.351Z,-0.20
2019-01-31T08:24:30.203Z,-0.20
2019-01-31T08:27:02.973Z,-0.10
2019-01-31T08:29:35.764Z,-0.10
2019-01-31T08:32:08.519Z,-0.10
2019-01-31T08:34:41.409Z,-0.10
2019-01-31T08:37:14.403Z,0.00
2019-01-31T08:39:47.112Z,0.00
2019-01-31T08:42:19.913Z,0.10
2019-01-31T08:44:52.935Z,0.10
2019-01-31T08:47:25.998Z,0.10
2019-01-31T08:49:58.998Z,0.00
2019-01-31T08:52:32.003Z,0.00
2019-01-31T08:55:05.299Z,0.00
2019-01-31T08:57:38.826Z,0.00
2019-01-31T09:00:17.740Z,0.10
2019-01-31T09:02:50.844Z,0.10
2019-01-31T09:05:24.137Z,0.00
2019-01-31T09:07:57.367Z,-0.10
2019-01-31T09:10:35.427Z,0.00
2019-01-31T09:13:10.264Z,0.00
2019-01-31T09:15:43.049Z,0.00
2019-01-31T09:18:15.868Z,0.10
2019-01-31T09:21:13.310Z,0.10
2019-01-31T09:24:31.289Z,0.10
2019-01-31T09:27:17.993Z,0.00
2019-01-31T09:30:19.555Z,0.00
2019-01-31T09:33:27.255Z,0.00
2019-01-31T09:36:28.718Z,0.10
2019-01-31T09:39:48.578Z,0.20
2019-01-31T09:43:09.075Z,0.40
2019-01-31T09:46:30.795Z,0.30
2019-01-31T09:49:33.441Z,0.40
2019-01-31T09:52:22.599Z,0.40
2019-01-31T09:55:32.088Z,0.50
2019-01-31T09:58:44.869Z,0.40
2019-01-31T10:01:37.499Z,0.30
2019-01-31T10:04:34.819Z,0.40
2019-01-31T10:07:58.808Z,0.40
2019-01-31T10:11:04.810Z,0.50
2019-01-31T10:14:10.542Z,0.50
2019-01-31T10:17:08.554Z,0.50
2019-01-31T10:20:41.394Z,0.70
2019-01-31T10:23:39.956Z,0.60
2019-01-31T10:26:52.344Z,0.60
2019-01-31T10:30:40.836Z,0.50
2019-01-31T10:33:53.051Z,0.40
2019-01-31T10:36:50.752Z,0.40
2019-01-31T10:40:01.697Z,0.50
2019-01-31T10:43:23.197Z,0.70
2019-01-31T10:46:25.489Z,0.90
2019-01-31T10:49:59.076Z,0.90
2019-01-31T10:52:58.626Z,1.00
2019-01-31T10:56:02.456Z,1.00
2019-01-31T10:59:09.265Z,1.10
2019-01-31T11:02:15.876Z,1.20
2019-01-31T11:05:25.494Z,1.10
2019-01-31T11:08:36.095Z,1.10
2019-01-31T11:11:41.312Z,1.10
2019-01-31T11:14:54.932Z,1.10
2019-01-31T11:18:04.712Z,1.20
2019-01-31T11:21:18.576Z,1.20
2019-01-31T11:24:34.054Z,1.10
2019-01-31T11:27:35.636Z,0.90
2019-01-31T11:30:45.811Z,1.10
2019-01-31T11:33:39.570Z,1.10
2019-01-31T11:37:08.442Z,1.40
2019-01-31T11:40:41.497Z,1.50
2019-01-31T11:43:43.648Z,1.50
2019-01-31T11:46:44.277Z,1.60
2019-01-31T11:49:41.826Z,1.40
2019-01-31T11:53:12.030Z,1.50
2019-01-31T11:56:20.605Z,1.50
2019-01-31T11:59:13.027Z,1.20
2019-01-31T12:01:46.072Z,1.40
2019-01-31T12:04:19.594Z,1.50
2019-01-31T12:06:52.410Z,1.30
2019-01-31T12:09:25.777Z,1.40
2019-01-31T12:12:01.926Z,1.20
2019-01-31T12:14:34.877Z,1.20
2019-01-31T12:17:07.711Z,1.20
2019-01-31T12:19:40.580Z,1.30
2019-01-31T12:22:13.680Z,1.30
2019-01-31T12:24:46.447Z,1.30
2019-01-31T12:27:19.206Z,1.30
2019-01-31T12:29:52.038Z,1.30
2019-01-31T12:32:25.050Z,1.20
2019-01-31T12:34:57.971Z,1.30
2019-01-31T12:37:30.851Z,1.40
2019-01-31T12:40:04.907Z,1.50
2019-01-31T12:42:37.871Z,1.40
2019-01-31T12:45:12.846Z,1.40
2019-01-31T12:47:46.011Z,1.50
2019-01-31T12:50:21.575Z,1.20
2019-01-31T12:52:54.558Z,1.20
2019-01-31T12:55:27.420Z,1.10
2019-01-31T12:58:00.532Z,1.20
2019-01-31T13:00:33.392Z,1.20
2019-01-31T13:03:06.532Z,1.10
2019-01-31T13:05:39.578Z,1.20
2019-01-31T13:08:13.407Z,1.20
2019-01-31T13:10:47.224Z,1.30
2019-01-31T13:13:20.267Z,1.30
2019-01-31T13:15:53.194Z,1.20
2019-01-31T13:18:26.113Z,1.20
2019-01-31T13:20:59.029Z,1.20
2019-01-31T13:23:31.807Z,1.20
2019-01-31T13:26:04.924Z,1.10
2019-01-31T13:28:37.938Z,1.10
2019-01-31T13:31:10.819Z,1.00
2019-01-31T13:33:46.538Z,1.10
2019-01-31T13:36:18.912Z,1.30
2019-01-31T13:38:51.761Z,1.30
2019-01-31T13:41:24.507Z,1.30
2019-01-31T13:43:58.025Z,1.30
2019-01-31T13:46:31.073Z,1.30
2019-01-31T13:49:04.146Z,1.40
2019-01-31T13:51:37.168Z,1.30
2019-01-31T13:54:10.155Z,1.30
2019-01-31T13:56:45.554Z,1.40
2019-01-31T13:59:18.506Z,1.10
2019-01-31T14:01:51.377Z,1.40
2019-01-31T14:04:24.440Z,1.40
2019-01-31T14:06:57.428Z,1.40
2019-01-31T14:09:30.477Z,1.40
2019-01-31T14:12:03.383Z,1.50
2019-01-31T14:14:36.459Z,1.60
2019-01-31T14:17:09.462Z,1.80
2019-01-31T14:19:42.260Z,1.90
2019-01-31T14:22:15.311Z,1.60
2019-01-31T14:24:48.325Z,1.70
2019-01-31T14:27:21.124Z,1.60
2019-01-31T14:29:54.249Z,1.70
2019-01-31T14:32:30.205Z,1.80
2019-01-31T14:35:09.348Z,1.90
2019-01-31T14:37:46.115Z,1.70
2019-01-31T14:40:20.755Z,1.70
2019-01-31T14:42:53.810Z,1.50
2019-01-31T14:45:29.665Z,1.50
2019-01-31T14:48:01.843Z,1.40
2019-01-31T14:50:34.780Z,1.30
2019-01-31T14:53:08.022Z,1.10
2019-01-31T14:55:41.065Z,1.10
2019-01-31T14:58:13.859Z,1.10
2019-01-31T15:00:46.734Z,1.10
2019-01-31T15:03:19.639Z,0.90
2019-01-31T15:05:52.570Z,0.90
2019-01-31T15:08:25.653Z,0.80
2019-01-31T15:10:58.564Z,0.80
2019-01-31T15:13:31.580Z,0.80
2019-01-31T15:16:04.453Z,0.80
2019-01-31T15:18:37.579Z,0.80
2019-01-31T15:21:10.541Z,0.80
2019-01-31T15:23:43.665Z,0.60
2019-01-31T15:26:16.717Z,0.70
2019-01-31T15:28:49.699Z,0.60
2019-01-31T15:31:22.692Z,0.50
2019-01-31T15:33:55.700Z,0.50
2019-01-31T15:36:28.690Z,0.50
2019-01-31T15:39:01.685Z,0.50
2019-01-31T15:41:36.599Z,0.50
2019-01-31T15:44:10.594Z,0.50
2019-01-31T15:46:43.745Z,0.40
2019-01-31T15:49:16.615Z,0.40
2019-01-31T15:51:49.406Z,0.40
2019-01-31T15:54:22.360Z,0.40
2019-01-31T15:56:56.615Z,0.40
2019-01-31T15:59:29.693Z,0.30
2019-01-31T16:02:02.594Z,0.30
2019-01-31T16:04:35.603Z,0.20
2019-01-31T16:07:08.444Z,0.30
2019-01-31T16:09:41.474Z,0.10
2019-01-31T16:12:14.262Z,0.10
2019-01-31T16:14:54.545Z,0.00
2019-01-31T16:17:21.566Z,0.00
2019-01-31T16:19:54.222Z,-0.10
2019-01-31T16:22:26.835Z,-0.10
2019-01-31T16:24:59.859Z,-0.20
2019-01-31T16:27:32.867Z,-0.20
2019-01-31T16:30:07.693Z,-0.20
2019-01-31T16:32:40.812Z,-0.30
2019-01-31T16:35:14.225Z,-0.30
2019-01-31T16:37:47.287Z,-0.30
2019-01-31T16:40:20.375Z,-0.30
2019-01-31T16:42:53.297Z,-0.40
2019-01-31T16:45:26.534Z,-0.40
2019-01-31T16:47:59.435Z,-0.30
2019-01-31T16:50:32.561Z,-0.30
2019-01-31T16:53:07.024Z,-0.20
2019-01-31T16:55:39.861Z,-0.30
2019-01-31T16:58:12.661Z,-0.30
2019-01-31T17:00:45.582Z,-0.40
2019-01-31T17:03:18.512Z,-0.40
2019-01-31T17:05:51.564Z,-0.40
2019-01-31T17:08:24.539Z,-0.30
2019-01-31T17:10:57.526Z,-0.20
2019-01-31T17:13:30.610Z,-0.30
2019-01-31T17:16:03.468Z,-0.30
2019-01-31T17:18:36.384Z,-0.20
2019-01-31T17:21:09.327Z,-0.20
2019-01-31T17:23:42.166Z,-0.30
2019-01-31T17:26:15.181Z,-0.20
2019-01-31T17:28:47.990Z,-0.30
2019-01-31T17:31:21.020Z,-0.30
2019-01-31T17:33:53.888Z,-0.30
2019-01-31T17:36:26.981Z,-0.20
2019-01-31T17:39:00.402Z,-0.20
2019-01-31T17:41:33.345Z,-0.20
2019-01-31T17:44:06.358Z,-0.20
2019-01-31T17:46:39.265Z,-0.20
2019-01-31T17:49:12.336Z,-0.30
2019-01-31T17:51:45.082Z,-0.30
2019-01-31T17:54:18.134Z,-0.30
2019-01-31T17:56:51.142Z,-0.40
2019-01-31T17:59:23.962Z,-0.40
2019-01-31T18:01:56.887Z,-0.40
2019-01-31T18:04:29.750Z,-0.50
2019-01-31T18:07:02.770Z,-0.50
2019-01-31T18:09:35.959Z,-0.50
2019-01-31T18:12:08.783Z,-0.50
2019-01-31T18:14:41.653Z,-0.60
2019-01-31T18:17:14.462Z,-0.60
2019-01-31T18:19:47.448Z,-0.70
2019-01-31T18:22:20.500Z,-0.60
2019-01-31T18:24:53.402Z,-0.60
2019-01-31T18:27:26.426Z,-0.60
2019-01-31T18:29:59.682Z,-0.60
2019-01-31T18:32:32.772Z,-0.70
2019-01-31T18:35:07.358Z,-0.60
2019-01-31T18:37:40.262Z,-0.60
2019-01-31T18:40:18.576Z,-0.70
2019-01-31T18:42:52.552Z,-0.70
2019-01-31T18:45:27.174Z,-0.70
2019-01-31T18:48:00.963Z,-0.60
2019-01-31T18:50:36.331Z,-0.60
2019-01-31T18:53:09.382Z,-0.60
2019-01-31T18:55:42.509Z,-0.60
2019-01-31T18:58:16.803Z,-0.60
2019-01-31T19:00:50.319Z,-0.60
2019-01-31T19:03:23.442Z,-0.70
2019-01-31T19:05:56.478Z,-0.80
2019-01-31T19:08:29.578Z,-0.80
2019-01-31T19:11:02.458Z,-0.80
2019-01-31T19:13:35.538Z,-0.90
2019-01-31T19:16:08.624Z,-0.90
2019-01-31T19:18:41.667Z,-0.80
2019-01-31T19:21:14.584Z,-0.80
2019-01-31T19:23:48.491Z,-0.80
2019-01-31T19:26:21.593Z,-0.80
2019-01-31T19:28:54.743Z,-0.80
2019-01-31T19:31:27.743Z,-0.90
2019-01-31T19:34:00.681Z,-0.90
2019-01-31T19:36:33.633Z,-1.00
2019-01-31T19:39:09.447Z,-1.00
2019-01-31T19:41:42.626Z,-1.00
2019-01-31T19:44:15.589Z,-1.00
2019-01-31T19:46:49.045Z,-1.00
2019-01-31T19:49:22.158Z,-1.00
2019-01-31T19:51:55.179Z,-0.90
2019-01-31T19:54:29.897Z,-0.90
2019-01-31T19:57:02.979Z,-0.90
2019-01-31T19:59:35.953Z,-0.90
2019-01-31T20:02:08.773Z,-0.90
2019-01-31T20:04:41.842Z,-0.90
2019-01-31T20:07:15.628Z,-0.90
2019-01-31T20:09:48.598Z,-0.90
2019-01-31T20:12:22.610Z,-0.90
2019-01-31T20:14:55.477Z,-0.80
2019-01-31T20:17:28.459Z,-0.90
2019-01-31T20:20:01.463Z,-0.80
2019-01-31T20:22:34.713Z,-0.90
2019-01-31T20:25:08.556Z,-0.90
2019-01-31T20:27:43.250Z,-0.90
2019-01-31T20:30:25.515Z,-0.90
2019-01-31T20:32:59.519Z,-0.80
2019-01-31T20:35:32.692Z,-0.80
2019-01-31T20:38:06.900Z,-0.80
2019-01-31T20:40:41.440Z,-0.80
2019-01-31T20:43:14.259Z,-0.80
2019-01-31T20:45:47.350Z,-0.70
2019-01-31T20:48:20.325Z,-0.70
2019-01-31T20:50:53.366Z,-0.70
2019-01-31T20:53:26.681Z,-0.70
2019-01-31T20:55:59.690Z,-0.70
2019-01-31T20:58:32.754Z,-0.60
2019-01-31T21:01:06.076Z,-0.60
2019-01-31T21:03:39.514Z,-0.60
2019-01-31T21:06:12.394Z,-0.60
2019-01-31T21:08:45.290Z,-0.60
2019-01-31T21:11:18.272Z,-0.60
2019-01-31T21:13:51.349Z,-0.50
2019-01-31T21:16:24.334Z,-0.60
2019-01-31T21:18:57.138Z,-0.60
2019-01-31T21:21:30.235Z,-0.60
2019-01-31T21:24:03.411Z,-0.50
2019-01-31T21:26:36.384Z,-0.60
2019-01-31T21:29:09.511Z,-0.60
2019-01-31T21:31:42.422Z,-0.60
2019-01-31T21:34:15.564Z,-0.60
2019-01-31T21:36:48.569Z,-0.60
2019-01-31T21:39:21.785Z,-0.60
2019-01-31T21:41:54.585Z,-0.60
2019-01-31T21:44:27.611Z,-0.60
2019-01-31T21:47:03.251Z,-0.50
2019-01-31T21:49:35.416Z,-0.50
2019-01-31T21:52:08.395Z,-0.50
2019-01-31T21:54:41.186Z,-0.50
2019-01-31T21:57:14.116Z,-0.50
2019-01-31T21:59:47.221Z,-0.40
2019-01-31T22:02:20.026Z,-0.40
2019-01-31T22:04:52.984Z,-0.40
2019-01-31T22:07:26.021Z,-0.40
2019-01-31T22:09:59.155Z,-0.40
2019-01-31T22:12:31.955Z,-0.40
2019-01-31T22:15:09.629Z,-0.40
2019-01-31T22:17:42.814Z,-0.40
2019-01-31T22:20:15.830Z,-0.30
2019-01-31T22:22:48.681Z,-0.30
2019-01-31T22:25:22.094Z,-0.30
2019-01-31T22:27:54.979Z,-0.30
2019-01-31T22:30:30.091Z,-0.30
2019-01-31T22:33:03.382Z,-0.20
2019-01-31T22:35:36.361Z,-0.20
2019-01-31T22:38:09.209Z,-0.20
2019-01-31T22:40:42.296Z,-0.20
2019-01-31T22:43:15.057Z,-0.20
2019-01-31T22:45:47.982Z,-0.20
2019-01-31T22:48:21.149Z,-0.20
2019-01-31T22:50:54.046Z,-0.20
2019-01-31T22:53:26.955Z,-0.10
2019-01-31T22:55:59.922Z,-0.10
2019-01-31T22:58:32.831Z,-0.10
2019-01-31T23:01:57.971Z,-0.10
2019-01-31T23:04:30.887Z,-0.10
2019-01-31T23:07:03.915Z,-0.10
2019-01-31T23:09:36.842Z,0.00
2019-01-31T23:12:09.855Z,0.00
2019-01-31T23:14:43.060Z,0.00
2019-01-31T23:17:16.140Z,0.10
2019-01-31T23:19:48.877Z,0.10
2019-01-31T23:22:21.682Z,0.10
2019-01-31T23:24:54.447Z,0.10
2019-01-31T23:27:27.366Z,0.10
2019-01-31T23:30:00.381Z,0.10
2019-01-31T23:32:33.601Z,0.20
2019-01-31T23:35:06.960Z,0.30
2019-01-31T23:37:39.933Z,0.20
2019-01-31T23:40:13.082Z,0.20
2019-01-31T23:42:46.073Z,0.20
2019-01-31T23:45:19.118Z,0.30
2019-01-31T23:47:52.085Z,0.30
2019-01-31T23:50:24.817Z,0.30
2019-01-31T23:52:57.647Z,0.30
2019-01-31T23:55:30.725Z,0.30
2019-01-31T23:58:03.881Z,0.30
